Time;durP1;ratioP1;P1;durP2;ratioP2;P2;SDS_P1;SDS_P2;PMS_P1;PMS_P2;Temp;Humidity;BMP_temperature;BMP_pressure;BME280_temperature;BME280_humidity;BME280_pressure;Samples;Min_cycle;Max_cycle;Signal;HPM_P1;HPM_P2
2023/05/23 00:01:06;;;;;;;19.60;13.10;;;14.00;99.90;;;;;;5014398;28;20434;-56
2023/05/23 00:03:32;;;;;;;16.23;12.20;;;14.00;99.90;;;;;;5018307;28;20450;-56
2023/05/23 00:05:58;;;;;;;18.37;13.10;;;13.90;99.90;;;;;;5015155;28;20481;-55
2023/05/23 00:08:24;;;;;;;24.00;13.40;;;13.90;99.90;;;;;;5016778;28;20853;-55
2023/05/23 00:10:50;;;;;;;18.30;13.20;;;13.90;99.90;;;;;;5011103;28;20484;-56
2023/05/23 00:13:16;;;;;;;17.20;12.30;;;13.90;99.90;;;;;;5016246;28;20459;-56
2023/05/23 00:15:42;;;;;;;17.67;13.00;;;13.90;99.90;;;;;;5012076;28;20168;-54
2023/05/23 00:18:09;;;;;;;16.40;12.20;;;13.90;99.90;;;;;;5014741;28;20520;-56
2023/05/23 00:20:39;;;;;;;17.53;12.20;;;13.80;99.90;;;;;;5017341;28;21239;-55
2023/05/23 00:23:06;;;;;;;17.73;13.07;;;13.80;99.90;;;;;;5018202;28;20434;-58
2023/05/23 00:25:35;;;;;;;19.60;13.40;;;13.80;99.90;;;;;;5015777;28;20640;-55
2023/05/23 00:28:01;;;;;;;16.63;12.87;;;13.80;99.90;;;;;;5017178;28;20532;-55
2023/05/23 00:30:29;;;;;;;23.33;13.00;;;13.80;99.90;;;;;;5017499;28;20495;-56
2023/05/23 00:32:55;;;;;;;19.00;12.60;;;13.70;99.90;;;;;;5016279;28;20589;-56
2023/05/23 00:35:22;;;;;;;22.17;12.73;;;13.70;99.90;;;;;;5015737;28;20461;-56
2023/05/23 00:37:50;;;;;;;26.47;12.37;;;13.70;99.90;;;;;;5018337;28;20180;-56
2023/05/23 00:40:17;;;;;;;18.40;12.47;;;13.70;99.90;;;;;;5013760;28;20581;-55
2023/05/23 00:42:42;;;;;;;19.20;12.40;;;13.70;99.90;;;;;;5014237;28;20593;-56
2023/05/23 00:45:08;;;;;;;17.30;12.63;;;13.60;99.90;;;;;;5017967;28;20986;-55
2023/05/23 00:47:34;;;;;;;22.57;13.20;;;13.60;99.90;;;;;;5016175;28;20363;-56
2023/05/23 00:50:00;;;;;;;19.33;12.80;;;13.60;99.90;;;;;;5016221;28;20442;-55
2023/05/23 00:52:25;;;;;;;16.33;12.63;;;13.60;99.90;;;;;;5015723;28;20315;-55
2023/05/23 00:54:51;;;;;;;17.97;12.60;;;13.60;99.90;;;;;;5013107;28;20547;-56
2023/05/23 00:57:17;;;;;;;16.70;12.00;;;13.50;99.90;;;;;;5011479;28;21803;-57
2023/05/23 00:59:44;;;;;;;25.93;13.40;;;13.50;99.90;;;;;;5014516;28;20222;-57
2023/05/23 01:02:11;;;;;;;16.57;11.50;;;13.50;99.90;;;;;;5017583;28;20183;-58
2023/05/23 01:04:37;;;;;;;17.90;12.80;;;13.50;99.90;;;;;;5013501;28;20442;-56
2023/05/23 01:07:03;;;;;;;17.03;12.50;;;13.40;99.90;;;;;;5014723;28;20463;-56
2023/05/23 01:09:29;;;;;;;19.37;12.10;;;13.40;99.90;;;;;;5013855;28;20499;-55
2023/05/23 01:12:06;;;;;;;16.60;12.00;;;13.40;99.90;;;;;;5017545;28;20176;-55
2023/05/23 01:14:44;;;;;;;17.83;11.83;;;13.40;99.90;;;;;;5015861;28;20187;-55
2023/05/23 01:17:24;;;;;;;16.60;11.43;;;13.40;99.90;;;;;;5013196;28;20430;-55
2023/05/23 01:20:00;;;;;;;16.93;12.33;;;13.30;99.90;;;;;;5015270;28;20546;-54
2023/05/23 01:22:59;;;;;;;16.93;12.10;;;13.30;99.90;;;;;;5016233;28;20525;-56
2023/05/23 01:25:35;;;;;;;18.50;11.90;;;13.30;99.90;;;;;;5017444;28;20444;-56
2023/05/23 01:28:04;;;;;;;16.33;11.23;;;13.30;99.90;;;;;;5015222;28;21279;-55
2023/05/23 01:30:34;;;;;;;16.20;11.90;;;13.30;99.90;;;;;;5015204;28;20931;-55
2023/05/23 01:33:00;;;;;;;19.30;12.03;;;13.20;99.90;;;;;;5020335;28;20431;-55
2023/05/23 01:35:27;;;;;;;17.90;12.37;;;13.20;99.90;;;;;;5017119;28;21117;-55
2023/05/23 01:37:55;;;;;;;17.77;12.07;;;13.20;99.90;;;;;;5015511;28;20572;-55
2023/05/23 01:40:22;;;;;;;17.67;13.37;;;13.20;99.90;;;;;;5017708;28;20517;-55
2023/05/23 01:42:48;;;;;;;18.33;12.83;;;13.20;99.90;;;;;;5016474;28;20561;-55
2023/05/23 01:45:14;;;;;;;17.60;12.80;;;13.10;99.90;;;;;;5012980;28;20518;-55
2023/05/23 01:47:41;;;;;;;21.13;12.87;;;13.10;99.90;;;;;;5015591;28;20646;-57
2023/05/23 01:50:08;;;;;;;17.50;12.13;;;13.10;99.90;;;;;;5016019;28;20459;-55
2023/05/23 01:52:34;;;;;;;15.73;11.73;;;13.10;99.90;;;;;;5017339;28;20430;-54
2023/05/23 01:55:01;;;;;;;18.13;11.60;;;13.10;99.90;;;;;;5016250;28;20430;-55
2023/05/23 01:57:29;;;;;;;15.80;12.10;;;13.10;99.90;;;;;;5014456;28;20478;-56
2023/05/23 01:59:55;;;;;;;18.90;13.40;;;13.10;99.90;;;;;;5008213;28;20485;-57
2023/05/23 02:02:21;;;;;;;19.90;13.07;;;13.10;99.90;;;;;;5015118;28;20539;-57
2023/05/23 02:04:48;;;;;;;22.67;14.57;;;13.10;99.90;;;;;;5020104;28;20907;-55
2023/05/23 02:07:14;;;;;;;19.73;13.70;;;13.10;99.90;;;;;;5016526;28;20273;-55
2023/05/23 02:09:40;;;;;;;21.20;14.80;;;13.00;99.90;;;;;;5018070;28;20458;-54
2023/05/23 02:12:05;;;;;;;18.77;12.63;;;13.00;99.90;;;;;;5020065;28;20237;-55
2023/05/23 02:14:32;;;;;;;21.13;12.73;;;13.00;99.90;;;;;;5016501;28;20693;-56
2023/05/23 02:16:59;;;;;;;20.33;12.73;;;13.00;99.90;;;;;;5020404;28;20384;-55
2023/05/23 02:19:25;;;;;;;19.13;12.37;;;13.00;99.90;;;;;;5018589;28;20462;-55
2023/05/23 02:21:51;;;;;;;17.83;12.87;;;13.00;99.90;;;;;;5016059;28;20439;-56
2023/05/23 02:24:16;;;;;;;18.30;12.93;;;13.00;99.90;;;;;;5017634;28;20900;-56
2023/05/23 02:26:42;;;;;;;20.50;13.57;;;13.00;99.90;;;;;;5017783;28;20180;-55
2023/05/23 02:29:08;;;;;;;17.77;13.23;;;12.90;99.90;;;;;;5014461;28;20215;-57
2023/05/23 02:31:33;;;;;;;20.70;13.60;;;12.90;99.90;;;;;;5015209;28;20734;-55
2023/05/23 02:33:59;;;;;;;18.67;13.33;;;12.90;99.90;;;;;;5014804;28;20317;-56
2023/05/23 02:36:25;;;;;;;26.93;13.50;;;12.90;99.90;;;;;;5018713;28;21961;-56
2023/05/23 02:38:51;;;;;;;18.03;13.13;;;12.90;99.90;;;;;;5019637;28;20195;-56
2023/05/23 02:41:16;;;;;;;18.90;13.53;;;12.90;99.90;;;;;;5014650;28;20443;-56
2023/05/23 02:43:45;;;;;;;18.53;12.67;;;12.90;99.90;;;;;;5017735;28;20187;-55
2023/05/23 02:46:12;;;;;;;20.43;12.93;;;12.90;99.90;;;;;;5016443;28;20258;-56
2023/05/23 02:48:37;;;;;;;18.67;13.70;;;12.90;99.90;;;;;;5020143;28;20480;-55
2023/05/23 02:51:03;;;;;;;22.13;13.90;;;12.90;99.90;;;;;;5018919;28;20431;-55
2023/05/23 02:53:29;;;;;;;17.63;12.60;;;12.90;99.90;;;;;;5019135;28;20193;-56
2023/05/23 02:55:54;;;;;;;23.03;12.43;;;12.90;99.90;;;;;;5018049;28;20262;-55
2023/05/23 02:58:20;;;;;;;17.60;13.00;;;12.80;99.90;;;;;;5017906;28;20212;-54
2023/05/23 03:00:46;;;;;;;19.67;12.97;;;12.80;99.90;;;;;;5017540;28;20318;-55
2023/05/23 03:03:11;;;;;;;17.60;13.20;;;12.80;99.90;;;;;;5017857;28;20188;-57
2023/05/23 03:05:37;;;;;;;20.00;12.77;;;12.70;99.90;;;;;;5019224;28;20307;-55
2023/05/23 03:08:02;;;;;;;20.90;13.70;;;12.70;99.90;;;;;;5019094;28;20296;-56
2023/05/23 03:10:28;;;;;;;18.90;14.00;;;12.70;99.90;;;;;;5017994;28;20176;-54
2023/05/23 03:12:54;;;;;;;25.00;15.00;;;12.60;99.90;;;;;;5017032;28;20211;-56
2023/05/23 03:15:19;;;;;;;22.73;14.30;;;12.60;99.90;;;;;;5015782;28;20164;-57
2023/05/23 03:17:45;;;;;;;18.80;13.30;;;12.60;99.90;;;;;;5019290;28;20176;-55
2023/05/23 03:20:11;;;;;;;18.50;12.67;;;12.60;99.90;;;;;;5013851;28;20377;-55
2023/05/23 03:22:36;;;;;;;16.13;12.00;;;12.60;99.90;;;;;;5011669;28;20204;-55
2023/05/23 03:25:03;;;;;;;21.50;14.07;;;12.70;99.90;;;;;;5021460;28;20183;-56
2023/05/23 03:27:28;;;;;;;17.90;13.30;;;12.60;99.90;;;;;;5018015;28;20288;-55
2023/05/23 03:29:54;;;;;;;22.37;14.00;;;12.60;99.90;;;;;;5020872;28;20670;-54
2023/05/23 03:32:19;;;;;;;19.13;14.20;;;12.60;99.90;;;;;;5020376;28;20194;-55
2023/05/23 03:34:45;;;;;;;20.57;13.67;;;12.60;99.90;;;;;;5027684;28;20259;-55
2023/05/23 03:37:11;;;;;;;20.73;13.70;;;12.70;99.90;;;;;;5023084;28;20194;-54
2023/05/23 03:39:36;;;;;;;26.20;14.53;;;12.60;99.90;;;;;;5014155;28;20216;-54
2023/05/23 03:42:02;;;;;;;23.50;14.47;;;12.60;99.90;;;;;;5019691;28;20180;-56
2023/05/23 03:44:27;;;;;;;24.53;14.23;;;12.60;99.90;;;;;;5021647;28;20184;-57
2023/05/23 03:46:53;;;;;;;19.60;14.30;;;12.60;99.90;;;;;;5021589;28;20519;-57
2023/05/23 03:49:19;;;;;;;23.13;12.90;;;12.60;99.90;;;;;;5017577;28;20204;-56
2023/05/23 03:51:44;;;;;;;22.93;14.33;;;12.60;99.90;;;;;;5021247;28;20175;-56
2023/05/23 03:54:10;;;;;;;22.50;13.40;;;12.60;99.90;;;;;;5017651;28;20691;-51
2023/05/23 03:56:35;;;;;;;21.80;14.73;;;12.60;99.90;;;;;;5020929;28;20203;-56
2023/05/23 03:59:01;;;;;;;20.27;14.20;;;12.60;99.90;;;;;;5019194;28;20208;-52
2023/05/23 04:01:26;;;;;;;27.03;15.40;;;12.60;99.90;;;;;;5019858;28;20198;-53
2023/05/23 04:03:52;;;;;;;23.13;14.70;;;12.70;99.90;;;;;;5012756;28;20188;-51
2023/05/23 04:06:19;;;;;;;23.60;15.90;;;12.70;99.90;;;;;;5009179;28;20186;-52
2023/05/23 04:08:44;;;;;;;23.13;14.90;;;12.80;99.90;;;;;;5004146;28;21775;-53
2023/05/23 04:11:10;;;;;;;23.10;16.03;;;12.80;99.90;;;;;;5020914;28;20456;-54
2023/05/23 04:13:36;;;;;;;27.40;16.33;;;12.90;99.90;;;;;;5017116;28;20180;-53
2023/05/23 04:16:04;;;;;;;23.17;16.13;;;12.90;99.90;;;;;;5014458;28;20198;-52
2023/05/23 04:18:32;;;;;;;28.20;15.80;;;13.00;99.90;;;;;;5019919;28;20461;-52
2023/05/23 04:20:58;;;;;;;26.17;15.23;;;13.00;99.90;;;;;;5018278;28;20439;-51
2023/05/23 04:23:24;;;;;;;22.03;15.07;;;13.00;99.90;;;;;;5019915;28;20814;-53
2023/05/23 04:25:50;;;;;;;28.20;15.70;;;13.10;99.90;;;;;;5009963;28;20430;-54
2023/05/23 04:28:16;;;;;;;20.03;14.60;;;13.10;99.90;;;;;;5012567;28;20474;-52
2023/05/23 04:30:42;;;;;;;19.80;13.30;;;13.10;99.90;;;;;;5000219;28;20211;-54
2023/05/23 04:33:08;;;;;;;19.10;12.40;;;13.10;99.90;;;;;;5012861;28;20434;-51
2023/05/23 04:35:37;;;;;;;20.07;12.40;;;13.10;99.90;;;;;;5012327;28;20457;-55
2023/05/23 04:38:03;;;;;;;19.23;12.40;;;13.10;99.90;;;;;;5019636;28;20496;-57
2023/05/23 04:40:30;;;;;;;20.53;13.50;;;13.10;99.90;;;;;;5021003;28;20439;-57
2023/05/23 04:42:56;;;;;;;19.30;14.17;;;13.10;99.90;;;;;;5012742;28;20478;-58
2023/05/23 04:45:22;;;;;;;24.13;14.30;;;13.10;99.90;;;;;;5011990;28;20473;-58
2023/05/23 04:47:47;;;;;;;24.90;17.33;;;13.10;99.90;;;;;;5017544;28;20502;-58
2023/05/23 04:50:13;;;;;;;30.73;17.80;;;13.10;99.90;;;;;;5016313;28;20871;-57
2023/05/23 04:52:40;;;;;;;25.97;17.27;;;13.20;99.90;;;;;;5020514;28;20180;-58
2023/05/23 04:55:07;;;;;;;25.07;16.57;;;13.30;99.90;;;;;;5008220;28;20477;-58
2023/05/23 04:57:33;;;;;;;26.50;17.53;;;13.40;99.90;;;;;;5010565;28;20586;-58
2023/05/23 04:59:59;;;;;;;27.40;17.70;;;13.50;99.90;;;;;;5014437;28;20473;-58
2023/05/23 05:02:26;;;;;;;29.70;17.77;;;13.50;99.90;;;;;;5008866;28;21020;-56
2023/05/23 05:04:52;;;;;;;26.00;16.87;;;13.60;99.90;;;;;;5006640;28;20518;-58
2023/05/23 05:07:17;;;;;;;27.07;16.30;;;13.70;99.90;;;;;;5011596;28;20543;-57
2023/05/23 05:09:43;;;;;;;22.67;15.17;;;13.70;99.90;;;;;;5011231;28;20528;-57
2023/05/23 05:12:08;;;;;;;25.23;14.60;;;13.80;99.90;;;;;;5011660;28;20194;-58
2023/05/23 05:14:34;;;;;;;26.20;13.63;;;13.80;99.90;;;;;;5013700;28;20325;-59
2023/05/23 05:17:01;;;;;;;28.63;13.40;;;13.90;99.90;;;;;;5020703;28;20276;-58
2023/05/23 05:19:27;;;;;;;25.07;13.80;;;13.90;99.90;;;;;;5022803;28;20200;-57
2023/05/23 05:21:52;;;;;;;29.00;15.67;;;13.90;99.90;;;;;;5018604;28;20457;-58
2023/05/23 05:24:19;;;;;;;29.00;18.17;;;13.90;99.90;;;;;;5019459;28;20355;-59
2023/05/23 05:26:46;;;;;;;27.27;17.43;;;14.00;99.90;;;;;;5019257;28;20870;-58
2023/05/23 05:29:12;;;;;;;30.57;18.83;;;14.10;99.90;;;;;;5019573;28;20956;-58
2023/05/23 05:31:37;;;;;;;24.90;14.17;;;14.20;99.90;;;;;;5024355;28;20514;-59
2023/05/23 05:34:03;;;;;;;24.53;15.40;;;14.30;99.90;;;;;;5018494;28;20188;-61
2023/05/23 05:36:30;;;;;;;27.90;15.23;;;14.30;99.90;;;;;;5016148;28;20180;-57
2023/05/23 05:38:56;;;;;;;33.93;17.03;;;14.40;99.90;;;;;;5013421;28;20253;-58
2023/05/23 05:41:22;;;;;;;28.43;18.50;;;14.40;99.90;;;;;;5016081;28;20426;-58
2023/05/23 05:43:47;;;;;;;31.60;18.97;;;14.50;99.90;;;;;;5022393;28;20640;-60
2023/05/23 05:46:13;;;;;;;32.47;20.20;;;14.60;99.90;;;;;;5020358;28;20307;-59
2023/05/23 05:48:38;;;;;;;32.93;19.90;;;14.70;99.90;;;;;;5020920;28;20613;-58
2023/05/23 05:51:04;;;;;;;30.43;19.67;;;14.80;99.90;;;;;;5018210;28;20193;-58
2023/05/23 05:53:30;;;;;;;31.83;21.00;;;14.90;99.90;;;;;;5023360;28;20259;-61
2023/05/23 05:55:55;;;;;;;31.00;19.67;;;15.00;99.90;;;;;;5009545;28;20195;-59
2023/05/23 05:58:21;;;;;;;28.10;17.20;;;15.10;99.90;;;;;;5018141;28;20212;-61
2023/05/23 06:00:47;;;;;;;30.80;17.40;;;15.10;99.90;;;;;;5018088;28;20255;-59
2023/05/23 06:03:14;;;;;;;34.73;19.27;;;15.20;99.90;;;;;;5017188;28;20196;-57
2023/05/23 06:05:40;;;;;;;31.83;19.70;;;15.20;99.90;;;;;;5024922;28;20450;-59
2023/05/23 06:08:06;;;;;;;32.80;21.10;;;15.30;99.90;;;;;;5022138;28;20453;-59
2023/05/23 06:10:32;;;;;;;41.33;21.40;;;15.40;99.90;;;;;;5024275;28;20576;-59
2023/05/23 06:12:58;;;;;;;35.60;20.90;;;15.60;99.90;;;;;;5014727;28;20533;-59
2023/05/23 06:15:24;;;;;;;33.63;20.00;;;15.60;99.90;;;;;;5016682;28;20175;-59
2023/05/23 06:17:51;;;;;;;30.70;21.13;;;15.70;99.90;;;;;;5013128;28;21091;-59
2023/05/23 06:20:16;;;;;;;32.63;21.00;;;15.80;99.90;;;;;;5022186;28;20446;-59
2023/05/23 06:22:42;;;;;;;30.97;19.40;;;15.80;99.90;;;;;;5018640;28;20498;-59
2023/05/23 06:25:07;;;;;;;33.33;20.87;;;15.90;99.90;;;;;;5019137;28;20305;-59
2023/05/23 06:27:33;;;;;;;30.10;20.43;;;15.90;99.90;;;;;;5011651;28;20283;-59
2023/05/23 06:29:59;;;;;;;29.50;19.83;;;15.90;99.90;;;;;;5013566;28;20854;-59
2023/05/23 06:32:24;;;;;;;35.53;21.63;;;15.90;99.90;;;;;;5022251;28;20192;-59
2023/05/23 06:34:50;;;;;;;37.47;21.00;;;16.00;99.90;;;;;;5020828;28;20211;-55
2023/05/23 06:37:16;;;;;;;35.63;21.07;;;16.00;99.90;;;;;;5020751;28;20258;-59
2023/05/23 06:39:42;;;;;;;34.80;23.10;;;16.10;99.90;;;;;;5017493;28;20217;-56
2023/05/23 06:42:08;;;;;;;35.00;22.50;;;16.20;99.90;;;;;;5018271;28;20944;-58
2023/05/23 06:44:34;;;;;;;37.17;22.03;;;16.30;99.90;;;;;;5017075;28;20196;-58
2023/05/23 06:46:59;;;;;;;40.03;23.73;;;16.40;99.90;;;;;;5021386;28;20949;-57
2023/05/23 06:49:25;;;;;;;45.47;24.87;;;16.40;99.90;;;;;;5020101;28;20287;-57
2023/05/23 06:51:51;;;;;;;38.90;24.13;;;16.50;99.90;;;;;;5017223;28;20179;-57
2023/05/23 06:54:17;;;;;;;40.77;25.37;;;16.70;99.90;;;;;;5019163;28;20202;-58
2023/05/23 06:56:42;;;;;;;42.80;24.10;;;16.70;99.90;;;;;;5019890;28;20254;-57
2023/05/23 06:59:08;;;;;;;48.73;27.63;;;16.80;99.90;;;;;;5018503;28;20488;-56
2023/05/23 07:01:34;;;;;;;50.53;28.50;;;16.80;99.90;;;;;;5018915;28;20177;-58
2023/05/23 07:04:00;;;;;;;54.80;28.33;;;16.90;99.90;;;;;;5024458;28;20706;-57
2023/05/23 07:06:27;;;;;;;56.67;30.77;;;17.00;99.90;;;;;;5023087;28;20250;-58
2023/05/23 07:08:53;;;;;;;55.50;30.97;;;17.10;99.90;;;;;;5014262;28;20207;-57
2023/05/23 07:11:20;;;;;;;55.70;29.17;;;17.20;99.90;;;;;;5028677;28;20426;-57
2023/05/23 07:13:46;;;;;;;56.20;30.77;;;17.20;99.90;;;;;;5021222;28;20868;-58
2023/05/23 07:16:12;;;;;;;51.50;28.90;;;17.30;99.90;;;;;;5023328;28;20597;-58
2023/05/23 07:18:37;;;;;;;50.30;27.93;;;17.30;99.90;;;;;;5018013;28;20234;-59
2023/05/23 07:21:03;;;;;;;60.83;31.40;;;17.30;99.90;;;;;;5020874;28;20201;-56
2023/05/23 07:23:33;;;;;;;54.67;29.77;;;17.30;99.90;;;;;;5023806;28;20183;-57
2023/05/23 07:25:59;;;;;;;48.27;28.07;;;17.40;99.90;;;;;;5023633;28;20176;-56
2023/05/23 07:28:24;;;;;;;60.60;31.47;;;17.30;99.90;;;;;;5018163;28;21018;-57
2023/05/23 07:30:50;;;;;;;51.23;28.00;;;17.30;99.90;;;;;;5023403;28;20262;-58
2023/05/23 07:33:15;;;;;;;53.50;28.27;;;17.20;99.90;;;;;;5019318;28;20202;-57
2023/05/23 07:35:42;;;;;;;48.70;26.47;;;17.10;99.90;;;;;;5020811;28;20652;-57
2023/05/23 07:38:08;;;;;;;47.80;28.93;;;17.00;99.90;;;;;;5019105;28;20377;-59
2023/05/23 07:40:33;;;;;;;54.27;28.23;;;17.00;99.90;;;;;;5017916;28;20533;-57
2023/05/23 07:42:59;;;;;;;49.90;26.27;;;16.90;99.90;;;;;;5021900;28;20191;-57
2023/05/23 07:45:25;;;;;;;52.13;28.70;;;16.90;99.90;;;;;;5022073;28;20214;-58
2023/05/23 07:47:51;;;;;;;57.23;27.30;;;17.00;99.90;;;;;;5024678;28;20616;-60
2023/05/23 07:50:17;;;;;;;46.23;25.93;;;17.00;99.90;;;;;;5025930;28;20253;-57
2023/05/23 07:52:43;;;;;;;43.87;25.27;;;17.10;99.90;;;;;;5019550;28;20429;-58
2023/05/23 07:55:09;;;;;;;45.40;26.60;;;17.20;99.90;;;;;;5023165;28;20267;-59
2023/05/23 07:57:34;;;;;;;40.87;24.67;;;17.30;99.90;;;;;;5012861;28;20534;-57
2023/05/23 08:00:00;;;;;;;49.87;27.10;;;17.40;99.90;;;;;;5018154;28;20696;-57
2023/05/23 08:02:26;;;;;;;49.07;26.47;;;17.50;99.90;;;;;;5017649;28;20245;-58
2023/05/23 08:04:52;;;;;;;41.33;25.70;;;17.60;99.90;;;;;;5018996;28;20184;-58
2023/05/23 08:07:18;;;;;;;53.10;27.43;;;17.70;99.90;;;;;;5017076;28;20199;-57
2023/05/23 08:09:44;;;;;;;45.07;26.00;;;17.80;99.90;;;;;;5013376;28;20446;-58
2023/05/23 08:12:10;;;;;;;53.23;27.20;;;18.00;99.90;;;;;;5012444;28;20446;-58
2023/05/23 08:14:35;;;;;;;44.33;27.67;;;18.00;99.90;;;;;;5015485;28;20427;-58
2023/05/23 08:17:01;;;;;;;48.67;28.10;;;18.00;99.90;;;;;;5016703;28;20175;-57
2023/05/23 08:19:27;;;;;;;61.03;27.23;;;18.10;99.90;;;;;;5016021;28;20211;-58
2023/05/23 08:21:53;;;;;;;43.40;26.67;;;18.20;99.90;;;;;;5016191;28;20172;-59
2023/05/23 08:24:20;;;;;;;44.40;25.90;;;18.40;99.90;;;;;;5008678;28;20188;-58
2023/05/23 08:26:46;;;;;;;49.07;25.20;;;18.50;99.90;;;;;;5012217;28;20493;-59
2023/05/23 08:29:12;;;;;;;38.27;24.03;;;18.50;99.90;;;;;;5021081;28;20482;-58
2023/05/23 08:31:38;;;;;;;43.87;24.07;;;18.60;99.20;;;;;;5019268;28;20431;-58
2023/05/23 08:34:04;;;;;;;39.50;24.93;;;18.80;99.90;;;;;;5023986;28;20430;-58
2023/05/23 08:36:33;;;;;;;33.53;22.07;;;18.90;99.90;;;;;;5021592;28;20173;-59
2023/05/23 08:38:58;;;;;;;38.63;22.40;;;19.10;99.60;;;;;;5021319;28;20470;-59
2023/05/23 08:41:25;;;;;;;34.03;21.97;;;19.20;99.60;;;;;;5015982;28;20878;-57
2023/05/23 08:43:51;;;;;;;37.97;24.33;;;19.30;99.30;;;;;;5012107;28;20771;-58
2023/05/23 08:46:17;;;;;;;38.77;23.73;;;19.50;95.50;;;;;;5018455;28;20439;-59
2023/05/23 08:48:46;;;;;;;40.13;23.77;;;19.60;94.60;;;;;;5023082;28;20203;-58
2023/05/23 08:51:14;;;;;;;34.33;22.70;;;19.70;89.10;;;;;;5009279;28;20176;-59
2023/05/23 08:53:45;;;;;;;37.33;21.50;;;19.60;88.00;;;;;;5013480;28;20438;-59
2023/05/23 08:56:11;;;;;;;36.47;22.20;;;19.60;91.30;;;;;;5019926;28;20414;-60
2023/05/23 08:58:39;;;;;;;40.07;23.57;;;19.50;91.60;;;;;;4981215;28;1091041;-61
2023/05/23 09:01:05;;;;;;;40.53;24.80;;;19.50;89.50;;;;;;5015057;28;20329;-61
2023/05/23 09:03:32;;;;;;;34.37;22.03;;;19.30;90.50;;;;;;5013200;28;21003;-58
2023/05/23 09:05:57;;;;;;;37.03;22.23;;;19.30;91.90;;;;;;5018281;28;20206;-58
2023/05/23 09:08:23;;;;;;;38.47;22.60;;;19.30;92.60;;;;;;5018191;28;21123;-59
2023/05/23 09:10:50;;;;;;;37.77;22.77;;;19.20;91.90;;;;;;5012701;28;20184;-58
2023/05/23 09:13:22;;;;;;;35.23;21.97;;;19.10;91.90;;;;;;5018650;28;20224;-59
2023/05/23 09:16:04;;;;;;;41.40;22.20;;;19.00;91.70;;;;;;5020257;28;20550;-58
2023/05/23 09:18:41;;;;;;;34.20;21.03;;;19.00;93.80;;;;;;5018898;28;20485;-55
2023/05/23 09:21:08;;;;;;;30.80;21.33;;;19.00;95.00;;;;;;5024205;28;21037;-59
2023/05/23 09:23:36;;;;;;;31.87;20.93;;;19.10;97.30;;;;;;5019908;28;20430;-58
2023/05/23 09:26:10;;;;;;;33.87;20.03;;;19.40;96.20;;;;;;5017035;28;20492;-58
2023/05/23 09:28:37;;;;;;;30.57;19.20;;;19.70;93.30;;;;;;5006341;28;20486;-60
2023/05/23 09:31:05;;;;;;;25.97;18.77;;;20.00;82.10;;;;;;5021436;28;20434;-59
2023/05/23 09:33:48;;;;;;;25.70;18.87;;;20.20;83.50;;;;;;5021302;28;20444;-58
2023/05/23 09:36:15;;;;;;;32.97;21.27;;;20.50;84.80;;;;;;5017669;28;20486;-58
2023/05/23 09:38:42;;;;;;;33.63;20.80;;;20.70;77.30;;;;;;5015797;28;20488;-59
2023/05/23 09:41:12;;;;;;;30.70;19.10;;;20.60;73.00;;;;;;5012534;28;20430;-57
2023/05/23 09:43:53;;;;;;;35.50;20.13;;;20.50;76.30;;;;;;5012521;28;20547;-58
2023/05/23 09:46:20;;;;;;;32.37;19.70;;;20.50;78.00;;;;;;5013748;28;21088;-59
2023/05/23 09:48:51;;;;;;;36.93;20.03;;;20.50;77.20;;;;;;5017667;28;20470;-59
2023/05/23 09:51:20;;;;;;;29.13;20.07;;;20.60;78.40;;;;;;5021839;28;20437;-58
2023/05/23 09:53:46;;;;;;;29.60;18.57;;;20.70;77.70;;;;;;5020117;28;20432;-60
2023/05/23 09:56:12;;;;;;;30.60;18.20;;;20.80;76.30;;;;;;5022640;28;20539;-60
2023/05/23 09:58:39;;;;;;;27.40;18.60;;;20.80;74.30;;;;;;5021886;28;20473;-61
2023/05/23 10:01:08;;;;;;;27.03;18.10;;;20.90;74.00;;;;;;5016466;28;20456;-57
2023/05/23 10:03:38;;;;;;;28.27;18.43;;;21.00;73.90;;;;;;5014536;28;20426;-59
2023/05/23 10:06:23;;;;;;;27.20;17.40;;;21.20;73.20;;;;;;5019950;28;20519;-59
2023/05/23 10:09:04;;;;;;;22.13;15.27;;;21.40;71.10;;;;;;5015034;28;20481;-59
2023/05/23 10:11:35;;;;;;;28.40;16.93;;;21.70;69.30;;;;;;5022847;28;20569;-58
2023/05/23 10:14:12;;;;;;;25.40;17.20;;;21.80;68.20;;;;;;5015197;28;20522;-59
2023/05/23 10:16:51;;;;;;;21.90;14.43;;;22.00;67.00;;;;;;5013981;28;20471;-58
2023/05/23 10:19:26;;;;;;;20.70;15.63;;;21.90;64.00;;;;;;5013705;28;20451;-57
2023/05/23 10:22:05;;;;;;;19.90;14.20;;;22.00;63.90;;;;;;5013675;28;20488;-59
2023/05/23 10:24:32;;;;;;;20.43;14.60;;;22.10;64.30;;;;;;5015528;28;20452;-59
2023/05/23 10:26:58;;;;;;;28.03;16.07;;;22.20;63.70;;;;;;5015085;28;20494;-58
2023/05/23 10:29:24;;;;;;;21.40;15.23;;;22.30;63.20;;;;;;5015041;28;20544;-60
2023/05/23 10:31:51;;;;;;;24.07;14.17;;;22.30;62.20;;;;;;5015391;28;20180;-58
2023/05/23 10:34:29;;;;;;;19.03;14.13;;;22.10;60.90;;;;;;5012125;28;20551;-59
2023/05/23 10:37:05;;;;;;;17.10;12.53;;;22.10;59.90;;;;;;5013254;28;20438;-59
2023/05/23 10:39:46;;;;;;;15.67;13.20;;;22.20;59.80;;;;;;5017422;28;20500;-59
2023/05/23 10:42:29;;;;;;;21.97;15.07;;;21.90;57.20;;;;;;5014504;28;20430;-57
2023/05/23 10:45:14;;;;;;;20.77;14.10;;;21.60;58.90;;;;;;5020466;28;20435;-60
2023/05/23 10:47:40;;;;;;;20.63;14.73;;;21.70;59.30;;;;;;5018573;28;20568;-61
2023/05/23 10:50:06;;;;;;;18.63;14.43;;;21.80;58.80;;;;;;5020597;28;20455;-58
2023/05/23 10:52:42;;;;;;;17.03;13.70;;;22.10;59.30;;;;;;5023504;28;20215;-60
2023/05/23 10:55:16;;;;;;;22.30;14.43;;;22.30;58.60;;;;;;5017282;28;20490;-57
2023/05/23 10:57:42;;;;;;;20.70;15.73;;;22.40;59.10;;;;;;5017085;28;20543;-60
2023/05/23 11:00:15;;;;;;;23.03;16.13;;;22.60;60.00;;;;;;5015871;28;20540;-62
2023/05/23 11:02:58;;;;;;;21.73;13.87;;;22.90;60.80;;;;;;5020434;28;20465;-59
2023/05/23 11:05:26;;;;;;;20.90;15.77;;;22.90;58.00;;;;;;5018251;28;20782;-59
2023/05/23 11:08:12;;;;;;;24.70;15.70;;;23.00;58.80;;;;;;5016523;28;20517;-60
2023/05/23 11:10:50;;;;;;;24.77;17.63;;;23.20;59.30;;;;;;5024500;28;20456;-59
2023/05/23 11:13:16;;;;;;;23.23;16.00;;;23.30;59.70;;;;;;5016908;28;20434;-55
2023/05/23 11:15:44;;;;;;;24.20;17.00;;;23.50;59.30;;;;;;5019088;28;20503;-55
2023/05/23 11:18:10;;;;;;;19.93;16.07;;;23.60;57.60;;;;;;5023632;28;20261;-55
2023/05/23 11:20:36;;;;;;;18.60;14.73;;;23.60;57.50;;;;;;5020976;28;20499;-54
2023/05/23 11:23:06;;;;;;;22.23;15.27;;;23.70;58.40;;;;;;5019161;28;20473;-53
2023/05/23 11:25:52;;;;;;;22.73;14.60;;;23.80;58.70;;;;;;5019468;28;20446;-51
2023/05/23 11:28:18;;;;;;;21.13;15.40;;;24.00;58.50;;;;;;5021967;28;20465;-53
2023/05/23 11:30:47;;;;;;;20.80;15.47;;;23.80;56.50;;;;;;5022365;28;20498;-50
2023/05/23 11:33:15;;;;;;;21.27;14.90;;;23.50;55.50;;;;;;5015005;28;21023;-54
2023/05/23 11:35:45;;;;;;;25.03;17.53;;;23.30;56.50;;;;;;5019871;28;20446;-52
2023/05/23 11:38:13;;;;;;;24.90;17.17;;;23.00;56.60;;;;;;5017629;28;20439;-52
2023/05/23 11:40:41;;;;;;;21.90;15.83;;;22.70;57.70;;;;;;5018446;28;20939;-53
2023/05/23 11:43:12;;;;;;;23.80;16.67;;;22.50;58.70;;;;;;5015333;28;20464;-54
2023/05/23 11:45:39;;;;;;;23.70;16.67;;;22.20;59.40;;;;;;5020160;28;20438;-56
2023/05/23 11:48:12;;;;;;;19.90;15.87;;;22.00;60.50;;;;;;5017491;28;20462;-58
2023/05/23 11:50:52;;;;;;;24.33;18.00;;;21.80;61.60;;;;;;5021377;28;20418;-57
2023/05/23 11:53:20;;;;;;;27.40;18.20;;;21.60;60.40;;;;;;5022266;28;20921;-58
2023/05/23 11:56:01;;;;;;;24.27;17.83;;;21.60;60.80;;;;;;5017608;28;20446;-59
2023/05/23 11:58:29;;;;;;;21.27;16.27;;;22.00;62.40;;;;;;5013641;28;20535;-59
2023/05/23 12:01:02;;;;;;;19.60;16.60;;;22.40;62.60;;;;;;5019064;28;20438;-58
2023/05/23 12:03:30;;;;;;;22.27;17.57;;;22.50;61.50;;;;;;5016148;28;20447;-59
2023/05/23 12:05:56;;;;;;;23.93;17.17;;;22.60;61.30;;;;;;5017965;28;20434;-58
2023/05/23 12:08:23;;;;;;;19.20;15.70;;;22.60;60.50;;;;;;5016966;28;20490;-59
2023/05/23 12:10:52;;;;;;;19.87;15.97;;;22.60;60.50;;;;;;5013928;28;20508;-58
2023/05/23 12:13:19;;;;;;;21.00;15.53;;;22.70;61.00;;;;;;5017751;28;21229;-58
2023/05/23 12:15:45;;;;;;;19.60;15.27;;;22.80;60.30;;;;;;5015582;28;20435;-58
2023/05/23 12:18:11;;;;;;;20.30;15.17;;;23.00;59.90;;;;;;5014977;28;20471;-60
2023/05/23 12:20:37;;;;;;;18.97;14.37;;;23.20;57.00;;;;;;5018034;28;20559;-58
2023/05/23 12:23:05;;;;;;;21.03;14.60;;;23.40;56.80;;;;;;5016983;28;21261;-58
2023/05/23 12:25:41;;;;;;;18.87;14.17;;;23.60;56.80;;;;;;5022095;28;20176;-61
2023/05/23 12:28:06;;;;;;;17.87;13.37;;;23.80;57.70;;;;;;5013740;28;20469;-60